createdAt,value
2019-03-04T00:00:47.596Z,66.54
2019-03-04T00:01:47.596Z,66.34
2019-03-04T00:02:47.551Z,66.24
2019-03-04T00:03:47.540Z,66.93
2019-03-04T00:04:47.525Z,66.44
2019-03-04T00:05:47.536Z,66.61
2019-03-04T00:06:47.537Z,66.75
2019-03-04T00:07:47.508Z,66.10
2019-03-04T00:08:47.501Z,66.51
2019-03-04T00:09:47.491Z,66.00
2019-03-04T00:10:47.462Z,65.28
2019-03-04T00:11:47.488Z,65.69
2019-03-04T00:12:47.446Z,66.20
2019-03-04T00:13:47.455Z,66.10
2019-03-04T00:14:47.427Z,65.89
2019-03-04T00:15:47.413Z,65.38
2019-03-04T00:16:47.428Z,66.82
2019-03-04T00:17:47.401Z,66.72
2019-03-04T00:18:47.378Z,66.41
2019-03-04T00:19:47.374Z,66.93
2019-03-04T00:20:47.365Z,66.72
2019-03-04T00:21:47.345Z,66.82
2019-03-04T00:22:47.333Z,66.82
2019-03-04T00:23:47.338Z,66.72
2019-03-04T00:24:47.309Z,67.03
2019-03-04T00:25:47.311Z,66.82
2019-03-04T00:26:47.307Z,66.72
2019-03-04T00:27:47.285Z,66.72
2019-03-04T00:28:47.268Z,67.13
2019-03-04T00:29:47.286Z,67.44
2019-03-04T00:30:47.238Z,67.13
2019-03-04T00:31:47.278Z,67.06
2019-03-04T00:32:47.250Z,67.36
2019-03-04T00:33:47.203Z,67.98
2019-03-04T00:34:47.200Z,67.16
2019-03-04T00:35:47.208Z,67.23
2019-03-04T00:36:47.175Z,66.96
2019-03-04T00:37:47.173Z,66.24
2019-03-04T00:38:47.181Z,66.61
2019-03-04T00:39:47.142Z,66.93
2019-03-04T00:40:47.137Z,66.61
2019-03-04T00:41:47.142Z,66.51
2019-03-04T00:42:47.109Z,67.16
2019-03-04T00:43:47.135Z,66.51
2019-03-04T00:44:47.093Z,68.08
2019-03-04T00:45:47.096Z,69.09
2019-03-04T00:46:47.090Z,68.46
2019-03-04T00:47:47.072Z,69.18
2019-03-04T00:48:47.070Z,69.73
2019-03-04T00:49:47.064Z,69.70
2019-03-04T00:50:47.041Z,69.70
2019-03-04T00:51:47.010Z,70.35
2019-03-04T00:52:47.000Z,70.25
2019-03-04T00:53:46.997Z,70.45
2019-03-04T00:54:47.013Z,70.86
2019-03-04T00:55:46.971Z,71.10
2019-03-04T00:56:46.964Z,71.28
2019-03-04T00:57:46.949Z,71.37
2019-03-04T00:58:46.933Z,70.97
2019-03-04T00:59:46.980Z,70.86
2019-03-04T01:00:46.907Z,70.35
2019-03-04T01:01:46.910Z,70.79
2019-03-04T01:02:46.900Z,70.59
2019-03-04T01:03:46.917Z,71.31
2019-03-04T01:04:46.905Z,71.31
2019-03-04T01:05:46.851Z,71.82
2019-03-04T01:06:46.853Z,71.72
2019-03-04T01:07:46.869Z,71.62
2019-03-04T01:08:46.847Z,71.31
2019-03-04T01:09:46.849Z,71.20
2019-03-04T01:10:46.819Z,71.31
2019-03-04T01:11:46.823Z,71.51
2019-03-04T01:12:46.789Z,71.96
2019-03-04T01:13:46.821Z,71.65
2019-03-04T01:14:46.769Z,71.44
2019-03-04T01:15:46.768Z,71.03
2019-03-04T01:16:46.791Z,71.24
2019-03-04T01:17:46.730Z,71.06
2019-03-04T01:18:46.706Z,70.93
2019-03-04T01:19:46.729Z,70.83
2019-03-04T01:20:46.716Z,71.14
2019-03-04T01:21:46.697Z,70.83
2019-03-04T01:22:46.676Z,69.70
2019-03-04T01:23:46.668Z,69.49
2019-03-04T01:24:46.653Z,69.18
2019-03-04T01:25:46.665Z,69.70
2019-03-04T01:26:46.651Z,69.49
2019-03-04T01:27:46.760Z,70.24
2019-03-04T01:28:46.633Z,70.00
2019-03-04T01:29:46.587Z,69.59
2019-03-04T01:30:46.612Z,68.77
2019-03-04T01:31:46.575Z,68.05
2019-03-04T01:32:46.555Z,66.64
2019-03-04T01:33:46.575Z,66.91
2019-03-04T01:34:46.570Z,67.25
2019-03-04T01:35:46.518Z,67.33
2019-03-04T01:36:46.528Z,67.12
2019-03-04T01:37:46.531Z,67.87
2019-03-04T01:38:46.520Z,68.05
2019-03-04T01:39:46.483Z,67.94
2019-03-04T01:40:46.478Z,67.94
2019-03-04T01:41:46.468Z,68.25
2019-03-04T01:42:46.499Z,68.77
2019-03-04T01:43:46.461Z,68.74
2019-03-04T01:44:46.435Z,67.74
2019-03-04T01:45:46.461Z,66.61
2019-03-04T01:46:46.411Z,66.81
2019-03-04T01:47:46.396Z,66.58
2019-03-04T01:48:46.387Z,66.27
2019-03-04T01:49:46.422Z,66.27
2019-03-04T01:50:46.370Z,66.27
2019-03-04T01:51:46.351Z,65.16
2019-03-04T01:52:46.374Z,65.44
2019-03-04T01:53:46.320Z,64.93
2019-03-04T01:54:46.376Z,64.83
2019-03-04T01:55:46.309Z,63.79
2019-03-04T01:56:46.312Z,63.69
2019-03-04T01:57:46.326Z,64.18
2019-03-04T01:58:46.275Z,63.56
2019-03-04T01:59:46.279Z,64.07
2019-03-04T02:00:46.272Z,63.87
2019-03-04T02:01:46.257Z,63.76
2019-03-04T02:02:46.260Z,63.56
2019-03-04T02:03:46.216Z,63.15
2019-03-04T02:04:46.206Z,63.87
2019-03-04T02:05:46.226Z,63.87
2019-03-04T02:06:46.181Z,63.15
2019-03-04T02:07:46.184Z,62.84
2019-03-04T02:08:46.184Z,62.95
2019-03-04T02:09:46.143Z,62.95
2019-03-04T02:10:46.135Z,63.15
2019-03-04T02:11:46.131Z,63.15
2019-03-04T02:12:46.113Z,63.15
2019-03-04T02:13:46.158Z,63.56
2019-03-04T02:14:46.099Z,63.15
2019-03-04T02:15:46.121Z,63.15
2019-03-04T02:16:53.278Z,62.74
2019-03-04T02:17:54.203Z,62.95
2019-03-04T02:18:46.107Z,62.84
2019-03-04T02:19:46.073Z,62.95
2019-03-04T02:20:46.035Z,63.67
2019-03-04T02:21:46.060Z,63.25
2019-03-04T02:22:46.095Z,63.67
2019-03-04T02:23:46.011Z,63.76
2019-03-04T02:24:46.033Z,63.15
2019-03-04T02:25:46.015Z,63.67
2019-03-04T02:26:45.957Z,63.76
2019-03-04T02:27:46.002Z,64.18
2019-03-04T02:28:45.961Z,64.39
2019-03-04T02:29:45.960Z,63.56
2019-03-04T02:30:53.179Z,63.05
2019-03-04T02:31:45.906Z,63.56
2019-03-04T02:32:45.903Z,63.97
2019-03-04T02:33:45.890Z,63.76
2019-03-04T02:34:45.899Z,64.39
2019-03-04T02:35:45.933Z,64.18
2019-03-04T02:36:45.919Z,65.13
2019-03-04T02:37:45.881Z,64.51
2019-03-04T02:38:45.853Z,63.97
2019-03-04T02:39:45.829Z,64.83
2019-03-04T02:40:45.843Z,64.83
2019-03-04T02:41:45.811Z,64.41
2019-03-04T02:42:45.802Z,64.83
2019-03-04T02:43:45.780Z,64.21
2019-03-04T02:44:45.786Z,64.51
2019-03-04T02:45:45.777Z,63.69
2019-03-04T02:46:45.748Z,64.31
2019-03-04T02:47:45.743Z,64.00
2019-03-04T02:48:45.728Z,64.11
2019-03-04T02:49:45.710Z,64.31
2019-03-04T02:50:45.735Z,64.83
2019-03-04T02:51:45.705Z,65.03
2019-03-04T02:52:45.679Z,64.31
2019-03-04T02:53:45.664Z,64.51
2019-03-04T02:54:45.651Z,65.44
2019-03-04T02:55:45.635Z,64.41
2019-03-04T02:56:45.665Z,64.31
2019-03-04T02:57:45.625Z,64.11
2019-03-04T02:58:45.607Z,64.72
2019-03-04T02:59:45.626Z,65.65
2019-03-04T03:00:45.587Z,65.13
2019-03-04T03:01:45.568Z,65.34
2019-03-04T03:02:45.589Z,65.37
2019-03-04T03:03:45.559Z,64.65
2019-03-04T03:04:45.534Z,64.86
2019-03-04T03:05:45.552Z,64.86
2019-03-04T03:06:45.524Z,64.86
2019-03-04T03:07:45.526Z,65.06
2019-03-04T03:08:45.519Z,64.86
2019-03-04T03:09:45.489Z,64.44
2019-03-04T03:10:45.495Z,64.34
2019-03-04T03:11:45.475Z,64.37
2019-03-04T03:12:45.483Z,64.75
2019-03-04T03:13:45.469Z,65.37
2019-03-04T03:14:45.428Z,65.16
2019-03-04T03:15:45.444Z,65.50
2019-03-04T03:16:45.406Z,65.09
2019-03-04T03:17:45.429Z,65.50
2019-03-04T03:18:45.413Z,65.40
2019-03-04T03:19:45.471Z,65.40
2019-03-04T03:20:45.380Z,65.61
2019-03-04T03:21:45.357Z,65.43
2019-03-04T03:22:45.345Z,65.53
2019-03-04T03:23:45.369Z,65.84
2019-03-04T03:24:45.390Z,65.74
2019-03-04T03:25:45.321Z,66.18
2019-03-04T03:26:45.295Z,66.36
2019-03-04T03:27:45.302Z,66.49
2019-03-04T03:28:45.314Z,66.28
2019-03-04T03:29:45.267Z,66.18
2019-03-04T03:30:45.263Z,66.60
2019-03-04T03:31:45.268Z,66.80
2019-03-04T03:32:45.275Z,66.73
2019-03-04T03:33:45.233Z,67.03
2019-03-04T03:34:45.216Z,67.35
2019-03-04T03:35:45.206Z,66.73
2019-03-04T03:36:45.194Z,67.24
2019-03-04T03:37:45.187Z,67.03
2019-03-04T03:38:45.169Z,67.14
2019-03-04T03:39:45.195Z,67.07
2019-03-04T03:40:45.137Z,66.66
2019-03-04T03:41:45.149Z,67.69
2019-03-04T03:42:45.113Z,67.17
2019-03-04T03:43:45.115Z,67.07
2019-03-04T03:44:45.106Z,67.27
2019-03-04T03:45:45.099Z,66.97
2019-03-04T03:46:45.093Z,66.89
2019-03-04T03:47:45.066Z,67.07
2019-03-04T03:48:45.048Z,67.10
2019-03-04T03:49:45.054Z,66.79
2019-03-04T03:50:45.063Z,67.10
2019-03-04T03:51:45.015Z,67.30
2019-03-04T03:52:45.011Z,66.89
2019-03-04T03:53:44.997Z,67.00
2019-03-04T03:54:45.017Z,67.00
2019-03-04T03:55:45.012Z,67.21
2019-03-04T03:56:44.976Z,67.96
2019-03-04T03:57:44.960Z,68.78
2019-03-04T03:58:44.978Z,68.16
2019-03-04T03:59:44.944Z,68.37
2019-03-04T04:00:44.924Z,69.51
2019-03-04T04:01:44.904Z,69.51
2019-03-04T04:02:44.924Z,69.74
2019-03-04T04:03:44.895Z,70.06
2019-03-04T04:04:44.872Z,70.47
2019-03-04T04:05:44.884Z,70.81
2019-03-04T04:06:44.876Z,70.92
2019-03-04T04:07:44.854Z,71.12
2019-03-04T04:08:44.874Z,71.78
2019-03-04T04:09:44.839Z,71.88
2019-03-04T04:10:44.849Z,72.19
2019-03-04T04:11:44.806Z,72.50
2019-03-04T04:12:44.780Z,72.50
2019-03-04T04:13:44.792Z,72.53
2019-03-04T04:14:44.837Z,73.25
2019-03-04T04:15:44.745Z,72.85
2019-03-04T04:16:44.759Z,73.15
2019-03-04T04:17:44.746Z,73.60
2019-03-04T04:18:44.715Z,74.02
2019-03-04T04:19:44.743Z,74.32
2019-03-04T04:20:44.720Z,74.02
2019-03-04T04:21:44.763Z,74.12
2019-03-04T04:22:44.681Z,73.91
2019-03-04T04:23:44.671Z,74.57
2019-03-04T04:24:44.657Z,75.40
2019-03-04T04:25:44.647Z,75.19
2019-03-04T04:26:44.657Z,75.09
2019-03-04T04:27:44.639Z,75.19
2019-03-04T04:28:44.612Z,74.67
2019-03-04T04:29:44.623Z,75.50
2019-03-04T04:30:44.589Z,75.12
2019-03-04T04:31:44.599Z,75.53
2019-03-04T04:32:44.574Z,75.32
2019-03-04T04:33:44.587Z,75.74
2019-03-04T04:34:44.574Z,75.95
2019-03-04T04:35:44.529Z,76.26
2019-03-04T04:36:44.528Z,76.26
2019-03-04T04:37:44.535Z,75.53
2019-03-04T04:38:44.516Z,75.63
2019-03-04T04:39:44.482Z,76.36
2019-03-04T04:40:44.513Z,76.36
2019-03-04T04:41:44.456Z,76.46
2019-03-04T04:42:44.503Z,77.29
2019-03-04T04:43:44.479Z,77.33
2019-03-04T04:44:44.442Z,77.23
2019-03-04T04:45:44.441Z,77.06
2019-03-04T04:46:44.428Z,77.02
2019-03-04T04:47:44.399Z,77.26
2019-03-04T04:48:44.423Z,77.44
2019-03-04T04:49:44.428Z,77.26
2019-03-04T04:50:44.364Z,77.16
2019-03-04T04:51:44.354Z,77.54
2019-03-04T04:52:44.352Z,77.89
2019-03-04T04:53:44.341Z,77.89
2019-03-04T04:54:44.325Z,78.20
2019-03-04T04:55:44.327Z,77.89
2019-03-04T04:56:44.303Z,77.89
2019-03-04T04:57:44.279Z,78.82
2019-03-04T04:58:44.295Z,78.92
2019-03-04T04:59:44.260Z,78.55
2019-03-04T05:00:44.292Z,78.86
2019-03-04T05:01:44.259Z,78.65
2019-03-04T05:02:44.229Z,78.75
2019-03-04T05:03:44.219Z,78.75
2019-03-04T05:04:44.266Z,78.65
2019-03-04T05:05:44.195Z,78.55
2019-03-04T05:06:44.181Z,78.75
2019-03-04T05:07:44.176Z,78.13
2019-03-04T05:08:44.161Z,78.23
2019-03-04T05:09:44.206Z,78.03
2019-03-04T05:10:44.155Z,77.51
2019-03-04T05:11:44.141Z,77.51
2019-03-04T05:12:44.128Z,77.61
2019-03-04T05:13:44.135Z,77.51
2019-03-04T05:14:44.165Z,77.20
2019-03-04T05:15:44.092Z,76.89
2019-03-04T05:16:44.089Z,76.78
2019-03-04T05:17:44.071Z,76.78
2019-03-04T05:18:44.053Z,76.68
2019-03-04T05:19:51.434Z,76.78
2019-03-04T05:20:44.029Z,76.57
2019-03-04T05:21:44.058Z,76.68
2019-03-04T05:22:44.029Z,76.78
2019-03-04T05:23:44.002Z,76.99
2019-03-04T05:24:44.009Z,76.68
2019-03-04T05:25:44.005Z,76.68
2019-03-04T05:26:43.958Z,77.02
2019-03-04T05:27:43.977Z,77.02
2019-03-04T05:28:43.945Z,77.54
2019-03-04T05:29:45.918Z,77.44
2019-03-04T05:30:43.921Z,77.95
2019-03-04T05:31:43.928Z,78.06
2019-03-04T05:32:43.933Z,78.58
2019-03-04T05:33:43.915Z,78.89
2019-03-04T05:34:43.894Z,78.51
2019-03-04T05:35:43.903Z,78.82
2019-03-04T05:36:43.900Z,79.34
2019-03-04T05:37:43.850Z,79.58
2019-03-04T05:38:43.831Z,80.11
2019-03-04T05:39:43.878Z,79.55
2019-03-04T05:40:43.834Z,80.11
2019-03-04T05:41:43.812Z,80.38
2019-03-04T05:42:43.795Z,80.83
2019-03-04T05:43:43.789Z,80.73
2019-03-04T05:44:43.758Z,80.94
2019-03-04T05:45:43.789Z,81.04
2019-03-04T05:46:43.793Z,81.29
2019-03-04T05:47:43.743Z,81.87
2019-03-04T05:48:43.730Z,82.18
2019-03-04T05:49:43.711Z,82.01
2019-03-04T05:50:43.698Z,82.32
2019-03-04T05:51:43.736Z,82.22
2019-03-04T05:52:43.718Z,82.43
2019-03-04T05:53:43.663Z,82.53
2019-03-04T05:54:43.675Z,82.43
2019-03-04T05:55:43.689Z,82.53
2019-03-04T05:56:43.642Z,82.36
2019-03-04T05:57:43.672Z,82.74
2019-03-04T05:58:43.633Z,82.95
2019-03-04T05:59:43.604Z,82.74
2019-03-04T06:00:43.601Z,82.74
2019-03-04T06:01:43.598Z,83.09
2019-03-04T06:02:43.571Z,83.30
2019-03-04T06:03:43.559Z,83.05
2019-03-04T06:04:43.583Z,82.84
2019-03-04T06:05:43.535Z,83.37
2019-03-04T06:06:43.525Z,82.64
2019-03-04T06:07:43.520Z,83.20
2019-03-04T06:08:43.557Z,83.47
2019-03-04T06:09:43.514Z,82.99
2019-03-04T06:10:43.475Z,83.09
2019-03-04T06:11:43.472Z,82.99
2019-03-04T06:12:43.469Z,83.30
2019-03-04T06:13:43.453Z,83.30
2019-03-04T06:14:43.467Z,83.09
2019-03-04T06:15:43.452Z,83.09
2019-03-04T06:16:47.164Z,82.99
2019-03-04T06:17:43.456Z,82.89
2019-03-04T06:18:43.411Z,82.68
2019-03-04T06:19:44.119Z,82.78
2019-03-04T06:20:43.372Z,82.57
2019-03-04T06:21:43.378Z,83.13
2019-03-04T06:22:43.345Z,82.99
2019-03-04T06:23:43.329Z,82.78
2019-03-04T06:24:43.316Z,82.89
2019-03-04T06:25:43.335Z,82.36
2019-03-04T06:26:43.302Z,82.26
2019-03-04T06:27:43.301Z,82.57
2019-03-04T06:28:43.279Z,81.88
2019-03-04T06:29:43.270Z,82.15
2019-03-04T06:30:43.286Z,82.46
2019-03-04T06:31:43.279Z,82.57
2019-03-04T06:32:43.275Z,82.61
2019-03-04T06:33:43.238Z,82.46
2019-03-04T06:34:43.222Z,82.71
2019-03-04T06:35:43.268Z,82.89
2019-03-04T06:36:43.203Z,83.20
2019-03-04T06:37:43.190Z,82.78
2019-03-04T06:38:43.206Z,83.20
2019-03-04T06:39:43.156Z,83.40
2019-03-04T06:40:43.923Z,83.51
2019-03-04T06:41:43.137Z,83.65
2019-03-04T06:42:43.140Z,83.51
2019-03-04T06:43:44.128Z,83.30
2019-03-04T06:44:43.104Z,83.30
2019-03-04T06:45:43.120Z,84.03
2019-03-04T06:46:43.104Z,83.82
2019-03-04T06:47:43.097Z,83.82
2019-03-04T06:48:43.066Z,83.51
2019-03-04T06:49:43.074Z,83.61
2019-03-04T06:50:43.041Z,83.61
2019-03-04T06:51:43.036Z,83.44
2019-03-04T06:52:43.019Z,83.92
2019-03-04T06:53:43.026Z,84.13
2019-03-04T06:54:43.016Z,84.75
2019-03-04T06:55:42.980Z,84.65
2019-03-04T06:56:42.969Z,84.34
2019-03-04T06:57:42.969Z,84.44
2019-03-04T06:58:42.987Z,84.23
2019-03-04T06:59:42.977Z,84.75
2019-03-04T07:00:42.938Z,84.09
2019-03-04T07:01:42.935Z,84.30
2019-03-04T07:02:42.926Z,84.20
2019-03-04T07:03:42.932Z,83.16
2019-03-04T07:04:42.884Z,83.64
2019-03-04T07:05:42.879Z,83.16
2019-03-04T07:06:42.865Z,83.12
2019-03-04T07:07:42.861Z,82.50
2019-03-04T07:08:42.831Z,82.08
2019-03-04T07:09:42.884Z,81.63
2019-03-04T07:10:42.814Z,81.11
2019-03-04T07:11:42.827Z,80.28
2019-03-04T07:12:42.797Z,79.41
2019-03-04T07:13:42.780Z,79.51
2019-03-04T07:14:42.852Z,79.61
2019-03-04T07:15:42.783Z,79.93
2019-03-04T07:16:42.747Z,79.69
2019-03-04T07:17:42.755Z,78.75
2019-03-04T07:18:42.792Z,78.82
2019-03-04T07:19:42.746Z,78.72
2019-03-04T07:20:42.703Z,78.58
2019-03-04T07:21:42.690Z,77.89
2019-03-04T07:22:42.689Z,76.61
2019-03-04T07:23:42.688Z,76.29
2019-03-04T07:24:42.656Z,76.29
2019-03-04T07:25:42.676Z,75.84
2019-03-04T07:26:42.638Z,75.22
2019-03-04T07:27:44.360Z,74.91
2019-03-04T07:28:42.616Z,74.60
2019-03-04T07:29:42.618Z,74.98
2019-03-04T07:30:42.609Z,75.60
2019-03-04T07:31:42.584Z,75.67
2019-03-04T07:32:42.575Z,74.95
2019-03-04T07:33:42.559Z,74.84
2019-03-04T07:34:42.546Z,74.84
2019-03-04T07:35:42.542Z,74.19
2019-03-04T07:36:42.522Z,73.91
2019-03-04T07:37:42.546Z,73.77
2019-03-04T07:38:42.504Z,73.25
2019-03-04T07:39:42.525Z,73.74
2019-03-04T07:40:42.511Z,74.05
2019-03-04T07:41:42.562Z,73.84
2019-03-04T07:42:42.480Z,73.94
2019-03-04T07:43:42.444Z,74.43
2019-03-04T07:44:42.503Z,73.91
2019-03-04T07:45:42.454Z,73.50
2019-03-04T07:46:42.433Z,73.71
2019-03-04T07:47:42.411Z,73.50
2019-03-04T07:48:42.426Z,73.50
2019-03-04T07:49:42.403Z,73.16
2019-03-04T07:50:42.374Z,72.43
2019-03-04T07:51:42.379Z,72.12
2019-03-04T07:52:42.362Z,72.30
2019-03-04T07:53:46.280Z,72.40
2019-03-04T07:54:42.342Z,72.40
2019-03-04T07:55:42.335Z,72.47
2019-03-04T07:56:42.334Z,72.36
2019-03-04T07:57:42.362Z,71.85
2019-03-04T07:58:42.293Z,71.85
2019-03-04T07:59:42.281Z,71.23
2019-03-04T08:00:42.255Z,71.20
2019-03-04T08:01:42.250Z,71.09
2019-03-04T08:02:42.320Z,71.41
2019-03-04T08:03:42.229Z,71.41
2019-03-04T08:04:42.236Z,71.37
2019-03-04T08:05:42.214Z,71.16
2019-03-04T08:06:42.206Z,70.75
2019-03-04T08:07:42.199Z,71.13
2019-03-04T08:08:42.180Z,70.51
2019-03-04T08:09:42.170Z,70.72
2019-03-04T08:10:42.145Z,70.31
2019-03-04T08:11:42.158Z,69.86
2019-03-04T08:12:42.480Z,69.96
2019-03-04T08:13:42.110Z,69.93
2019-03-04T08:14:42.102Z,69.93
2019-03-04T08:15:42.118Z,69.07
2019-03-04T08:16:42.076Z,68.35
2019-03-04T08:17:42.066Z,67.94
2019-03-04T08:18:42.072Z,67.30
2019-03-04T08:19:42.077Z,66.47
2019-03-04T08:20:42.044Z,64.39
2019-03-04T08:21:42.030Z,64.36
2019-03-04T08:22:42.036Z,61.27
2019-03-04T08:23:42.441Z,60.83
2019-03-04T08:24:42.020Z,60.63
2019-03-04T08:25:41.990Z,59.16
2019-03-04T08:26:41.970Z,55.54
2019-03-04T08:27:41.972Z,55.95
2019-03-04T08:28:42.021Z,56.02
2019-03-04T08:29:41.952Z,56.43
2019-03-04T08:30:41.932Z,55.90
2019-03-04T08:31:41.922Z,54.46
2019-03-04T08:32:42.092Z,53.03
2019-03-04T08:33:41.948Z,52.49
2019-03-04T08:34:41.902Z,51.54
2019-03-04T08:35:41.872Z,51.10
2019-03-04T08:36:41.858Z,50.90
2019-03-04T08:37:41.854Z,50.16
2019-03-04T08:38:41.832Z,50.14
2019-03-04T08:39:41.841Z,49.42
2019-03-04T08:40:41.820Z,49.40
2019-03-04T08:41:41.826Z,49.60
2019-03-04T08:42:41.803Z,50.20
2019-03-04T08:43:41.793Z,49.79
2019-03-04T08:44:41.783Z,49.89
2019-03-04T08:45:41.759Z,49.25
2019-03-04T08:46:41.763Z,49.66
2019-03-04T08:47:41.797Z,49.74
2019-03-04T08:48:41.752Z,49.33
2019-03-04T08:49:41.719Z,49.30
2019-03-04T08:50:41.712Z,48.69
2019-03-04T08:51:41.706Z,49.51
2019-03-04T08:52:41.702Z,47.04
2019-03-04T08:53:41.666Z,47.63
2019-03-04T08:54:41.687Z,47.02
2019-03-04T08:55:41.656Z,47.42
2019-03-04T08:56:41.634Z,44.75
2019-03-04T08:57:41.641Z,45.77
2019-03-04T08:58:41.610Z,47.09
2019-03-04T08:59:41.618Z,47.81
2019-03-04T09:00:41.619Z,46.06
2019-03-04T09:01:41.692Z,45.65
2019-03-04T09:02:41.572Z,47.17
2019-03-04T09:03:41.577Z,47.17
2019-03-04T09:04:41.568Z,47.08
2019-03-04T09:05:41.555Z,46.56
2019-03-04T09:06:41.559Z,46.03
2019-03-04T09:07:41.513Z,44.00
2019-03-04T09:08:41.598Z,45.01
2019-03-04T09:09:41.572Z,43.37
2019-03-04T09:10:41.501Z,43.16
2019-03-04T09:11:41.525Z,44.38
2019-03-04T09:12:41.497Z,44.08
2019-03-04T09:13:41.553Z,42.74
2019-03-04T09:14:41.429Z,41.82
2019-03-04T09:15:41.471Z,41.90
2019-03-04T09:16:41.405Z,43.32
2019-03-04T09:17:41.396Z,41.78
2019-03-04T09:18:41.401Z,42.80
2019-03-04T09:19:41.403Z,41.46
2019-03-04T09:20:41.362Z,39.62
2019-03-04T09:21:41.353Z,40.75
2019-03-04T09:22:41.359Z,41.35
2019-03-04T09:23:41.325Z,41.86
2019-03-04T09:24:41.340Z,41.74
2019-03-04T09:25:41.301Z,41.44
2019-03-04T09:26:41.307Z,41.54
2019-03-04T09:27:41.326Z,41.33
2019-03-04T09:28:48.347Z,40.22
2019-03-04T09:29:41.290Z,39.51
2019-03-04T09:30:41.282Z,39.00
2019-03-04T09:31:41.245Z,40.81
2019-03-04T09:32:41.226Z,39.59
2019-03-04T09:33:41.260Z,38.47
2019-03-04T09:34:41.229Z,38.56
2019-03-04T09:35:41.212Z,38.56
2019-03-04T09:36:41.226Z,38.56
2019-03-04T09:37:41.181Z,38.66
2019-03-04T09:38:41.161Z,38.56
2019-03-04T09:39:41.193Z,37.93
2019-03-04T09:40:49.010Z,38.45
2019-03-04T09:41:41.127Z,38.74
2019-03-04T09:42:41.121Z,38.64
2019-03-04T09:43:41.112Z,38.54
2019-03-04T09:44:48.543Z,38.54
2019-03-04T09:45:41.104Z,39.15
2019-03-04T09:46:41.075Z,38.13
2019-03-04T09:47:48.176Z,37.73
2019-03-04T09:48:41.052Z,37.62
2019-03-04T09:49:41.035Z,37.42
2019-03-04T09:50:41.105Z,37.52
2019-03-04T09:51:41.049Z,38.84
2019-03-04T09:52:41.001Z,38.43
2019-03-04T09:53:43.078Z,38.13
2019-03-04T09:54:41.012Z,38.84
2019-03-04T09:55:40.997Z,39.25
2019-03-04T09:56:40.971Z,40.06
2019-03-04T09:57:48.184Z,39.86
2019-03-04T09:58:48.097Z,40.48
2019-03-04T09:59:40.945Z,40.38
2019-03-04T10:00:40.930Z,39.37
2019-03-04T10:01:40.900Z,40.28
2019-03-04T10:02:40.891Z,39.67
2019-03-04T10:03:40.878Z,40.79
2019-03-04T10:04:40.915Z,39.26
2019-03-04T10:05:40.860Z,38.86
2019-03-04T10:06:40.869Z,38.96
2019-03-04T10:07:40.863Z,39.26
2019-03-04T10:08:40.820Z,38.96
2019-03-04T10:09:40.827Z,39.78
2019-03-04T10:10:40.827Z,38.25
2019-03-04T10:11:40.841Z,38.66
2019-03-04T10:12:40.784Z,39.47
2019-03-04T10:13:40.778Z,39.57
2019-03-04T10:14:40.769Z,40.28
2019-03-04T10:15:40.776Z,38.66
2019-03-04T10:16:40.734Z,39.26
2019-03-04T10:17:40.726Z,38.25
2019-03-04T10:18:40.741Z,38.35
2019-03-04T10:19:40.723Z,37.85
2019-03-04T10:20:40.761Z,38.76
2019-03-04T10:21:40.698Z,38.25
2019-03-04T10:22:40.703Z,39.04
2019-03-04T10:23:40.653Z,38.76
2019-03-04T10:24:40.663Z,38.95
2019-03-04T10:25:40.642Z,38.03
2019-03-04T10:26:40.625Z,38.64
2019-03-04T10:27:40.640Z,38.95
2019-03-04T10:28:40.607Z,38.03
2019-03-04T10:29:40.592Z,38.64
2019-03-04T10:30:40.590Z,38.64
2019-03-04T10:31:40.613Z,38.95
2019-03-04T10:32:40.553Z,39.15
2019-03-04T10:33:40.564Z,39.86
2019-03-04T10:34:40.544Z,40.26
2019-03-04T10:35:40.533Z,40.67
2019-03-04T10:36:40.539Z,40.77
2019-03-04T10:37:40.500Z,40.67
2019-03-04T10:38:42.929Z,40.77
2019-03-04T10:39:40.488Z,40.97
2019-03-04T10:40:40.489Z,40.77
2019-03-04T10:41:40.519Z,41.17
2019-03-04T10:42:40.470Z,41.38
2019-03-04T10:43:40.452Z,41.17
2019-03-04T10:44:40.419Z,41.28
2019-03-04T10:45:40.437Z,41.17
2019-03-04T10:46:40.429Z,41.17
2019-03-04T10:47:40.420Z,41.88
2019-03-04T10:48:40.411Z,42.90
2019-03-04T10:49:40.366Z,41.68
2019-03-04T10:50:40.386Z,42.80
2019-03-04T10:51:40.341Z,41.28
2019-03-04T10:52:40.405Z,41.38
2019-03-04T10:53:40.315Z,41.68
2019-03-04T10:54:47.367Z,41.40
2019-03-04T10:55:42.236Z,41.91
2019-03-04T10:56:42.367Z,42.00
2019-03-04T10:57:40.279Z,41.91
2019-03-04T10:58:40.271Z,43.04
2019-03-04T10:59:40.313Z,43.44
2019-03-04T11:00:40.279Z,44.26
2019-03-04T11:01:40.256Z,43.85
2019-03-04T11:02:40.254Z,43.53
2019-03-04T11:03:40.220Z,43.32
2019-03-04T11:04:40.194Z,44.04
2019-03-04T11:05:40.219Z,43.84
2019-03-04T11:06:40.193Z,43.93
2019-03-04T11:07:40.167Z,43.84
2019-03-04T11:08:40.203Z,43.85
2019-03-04T11:09:40.152Z,44.06
2019-03-04T11:10:40.136Z,43.63
2019-03-04T11:11:40.120Z,43.93
2019-03-04T11:12:40.107Z,45.56
2019-03-04T11:13:40.123Z,44.97
2019-03-04T11:14:40.093Z,44.54
2019-03-04T11:15:40.087Z,45.25
2019-03-04T11:16:40.091Z,44.85
2019-03-04T11:17:40.099Z,45.48
2019-03-04T11:18:40.056Z,44.89
2019-03-04T11:19:40.031Z,44.87
2019-03-04T11:20:40.013Z,45.60
2019-03-04T11:21:40.101Z,45.60
2019-03-04T11:22:40.000Z,47.53
2019-03-04T11:23:40.014Z,46.13
2019-03-04T11:24:40.024Z,47.27
2019-03-04T11:25:39.962Z,47.60
2019-03-04T11:26:39.983Z,47.39
2019-03-04T11:27:39.973Z,47.92
2019-03-04T11:28:39.941Z,47.85
2019-03-04T11:29:40.037Z,48.86
2019-03-04T11:30:40.012Z,49.48
2019-03-04T11:31:39.955Z,49.50
2019-03-04T11:32:39.952Z,49.29
2019-03-04T11:33:39.870Z,49.40
2019-03-04T11:34:39.904Z,50.13
2019-03-04T11:35:39.898Z,50.64
2019-03-04T11:36:39.854Z,51.76
2019-03-04T11:37:39.824Z,51.99
2019-03-04T11:38:39.830Z,53.01
2019-03-04T11:39:39.837Z,53.92
2019-03-04T11:40:39.816Z,54.87
2019-03-04T11:41:39.778Z,55.18
2019-03-04T11:42:39.778Z,55.61
2019-03-04T11:43:39.753Z,55.91
2019-03-04T11:44:39.761Z,56.23
2019-03-04T11:45:39.745Z,55.43
2019-03-04T11:46:39.759Z,56.45
2019-03-04T11:47:39.719Z,56.56
2019-03-04T11:48:39.727Z,57.48
2019-03-04T11:49:39.699Z,57.50
2019-03-04T11:50:39.676Z,57.09
2019-03-04T11:51:39.720Z,58.42
2019-03-04T11:52:39.667Z,58.22
2019-03-04T11:53:39.665Z,59.03
2019-03-04T11:54:39.635Z,57.91
2019-03-04T11:55:39.642Z,58.14
2019-03-04T11:56:39.629Z,59.98
2019-03-04T11:57:39.599Z,57.32
2019-03-04T11:58:39.618Z,57.02
2019-03-04T11:59:39.593Z,54.77
2019-03-04T12:00:39.586Z,54.46
2019-03-04T12:01:39.561Z,53.36
2019-03-04T12:02:39.611Z,53.57
2019-03-04T12:03:39.568Z,54.51
2019-03-04T12:04:39.532Z,54.51
2019-03-04T12:06:46.714Z,54.74
2019-03-04T12:07:39.510Z,54.74
2019-03-04T12:08:39.496Z,55.36
2019-03-04T12:09:39.473Z,55.97
2019-03-04T12:10:39.456Z,57.12
2019-03-04T12:11:39.476Z,56.00
2019-03-04T12:12:39.462Z,55.69
2019-03-04T12:13:39.423Z,56.10
2019-03-04T12:14:39.411Z,56.92
2019-03-04T12:15:39.404Z,57.23
2019-03-04T12:16:39.430Z,56.51
2019-03-04T12:17:39.374Z,55.08
2019-03-04T12:18:39.386Z,55.08
2019-03-04T12:19:39.508Z,54.77
2019-03-04T12:20:39.361Z,55.30
2019-03-04T12:21:39.342Z,54.49
2019-03-04T12:22:39.322Z,55.28
2019-03-04T12:23:39.338Z,55.62
2019-03-04T12:24:39.298Z,55.79
2019-03-04T12:25:39.316Z,55.28
2019-03-04T12:26:39.278Z,55.41
2019-03-04T12:27:39.271Z,55.69
2019-03-04T12:28:39.277Z,55.10
2019-03-04T12:29:39.300Z,55.08
2019-03-04T12:30:39.293Z,55.58
2019-03-04T12:31:39.238Z,55.08
2019-03-04T12:32:39.216Z,55.79
2019-03-04T12:33:39.276Z,55.08
2019-03-04T12:34:39.202Z,54.28
2019-03-04T12:35:39.200Z,54.08
2019-03-04T12:36:39.225Z,53.67
2019-03-04T12:37:39.194Z,54.90
2019-03-04T12:38:39.165Z,55.62
2019-03-04T12:39:39.172Z,54.79
2019-03-04T12:40:39.157Z,55.85
2019-03-04T12:41:39.136Z,55.64
2019-03-04T12:42:39.108Z,55.02
2019-03-04T12:43:39.172Z,55.64
2019-03-04T12:44:39.097Z,54.85
2019-03-04T12:45:39.069Z,54.64
2019-03-04T12:46:39.063Z,54.23
2019-03-04T12:47:39.050Z,54.36
2019-03-04T12:48:39.036Z,54.87
2019-03-04T12:49:39.038Z,55.18
2019-03-04T12:50:39.043Z,55.28
2019-03-04T12:51:39.001Z,54.97
2019-03-04T12:52:38.998Z,54.90
2019-03-04T12:54:46.972Z,54.90